createdAt,value
2023-06-17T00:01:08.464Z,100067.75
2023-06-17T00:03:35.515Z,100066.69
2023-06-17T00:06:02.430Z,100068.69
2023-06-17T00:08:29.489Z,100072.25
2023-06-17T00:10:56.479Z,100074.63
2023-06-17T00:13:24.096Z,100077.44
2023-06-17T00:15:52.444Z,100078.22
2023-06-17T00:18:21.201Z,100080.50
2023-06-17T00:20:48.881Z,100077.19
2023-06-17T00:23:15.826Z,100072.13
2023-06-17T00:25:42.834Z,100074.63
2023-06-17T00:28:09.844Z,100072.88
2023-06-17T00:30:37.880Z,100076.56
2023-06-17T00:33:05.611Z,100066.84
2023-06-17T00:35:32.983Z,100076.81
2023-06-17T00:38:01.156Z,100073.25
2023-06-17T00:40:28.357Z,100072.25
2023-06-17T00:42:55.313Z,100079.62
2023-06-17T00:45:22.206Z,100075.91
2023-06-17T00:47:49.293Z,100074.47
2023-06-17T00:50:17.401Z,100074.22
2023-06-17T00:52:46.653Z,100077.06
2023-06-17T00:55:13.809Z,100074.75
2023-06-17T00:57:41.030Z,100070.25
2023-06-17T01:00:12.393Z,100067.78
2023-06-17T01:02:45.666Z,100070.47
2023-06-17T01:05:16.551Z,100068.63
2023-06-17T01:07:59.993Z,100072.34
2023-06-17T01:10:50.257Z,100071.63
2023-06-17T01:13:18.050Z,100063.69
2023-06-17T01:15:45.313Z,100061.59
2023-06-17T01:18:13.122Z,100060.53
2023-06-17T01:20:41.884Z,100062.38
2023-06-17T01:23:12.168Z,100065.13
2023-06-17T01:25:41.009Z,100065.44
2023-06-17T01:28:18.101Z,100070.13
2023-06-17T01:30:49.509Z,100076.91
2023-06-17T01:33:17.219Z,100070.03
2023-06-17T01:36:05.704Z,100074.13
2023-06-17T01:38:38.511Z,100071.72
2023-06-17T01:41:12.220Z,100068.63
2023-06-17T01:43:41.952Z,100070.81
2023-06-17T01:46:08.858Z,100070.16
2023-06-17T01:48:36.043Z,100075.00
2023-06-17T01:51:03.182Z,100072.31
2023-06-17T01:53:30.163Z,100072.81
2023-06-17T01:55:57.214Z,100073.12
2023-06-17T01:58:24.430Z,100071.41
2023-06-17T02:00:51.496Z,100071.59
2023-06-17T02:03:18.956Z,100084.72
2023-06-17T02:05:46.193Z,100078.16
2023-06-17T02:08:13.611Z,100073.00
2023-06-17T02:10:40.596Z,100080.19
2023-06-17T02:13:09.511Z,100079.25
2023-06-17T02:15:36.553Z,100071.31
2023-06-17T02:18:03.721Z,100072.59
2023-06-17T02:20:30.734Z,100077.19
2023-06-17T02:22:57.688Z,100080.91
2023-06-17T02:25:24.708Z,100076.94
2023-06-17T02:27:52.932Z,100080.66
2023-06-17T02:30:20.036Z,100086.62
2023-06-17T02:32:47.263Z,100081.06
2023-06-17T02:35:15.350Z,100090.03
2023-06-17T02:37:42.756Z,100086.28
2023-06-17T02:40:10.648Z,100091.09
2023-06-17T02:42:42.097Z,100086.56
2023-06-17T02:45:12.807Z,100091.09
2023-06-17T02:47:42.242Z,100083.09
2023-06-17T02:50:09.794Z,100084.59
2023-06-17T02:52:38.610Z,100092.06
2023-06-17T02:55:07.054Z,100086.16
2023-06-17T02:57:34.156Z,100083.16
2023-06-17T03:00:01.327Z,100094.00
2023-06-17T03:02:28.370Z,100095.69
2023-06-17T03:04:55.533Z,100092.56
2023-06-17T03:07:22.848Z,100097.75
2023-06-17T03:09:49.951Z,100100.41
2023-06-17T03:12:16.984Z,100098.47
2023-06-17T03:14:43.901Z,100097.87
2023-06-17T03:17:12.199Z,100092.91
2023-06-17T03:19:39.230Z,100099.69
2023-06-17T03:22:07.212Z,100099.59
2023-06-17T03:24:34.216Z,100088.88
2023-06-17T03:27:01.314Z,100092.03
2023-06-17T03:29:29.027Z,100094.72
2023-06-17T03:31:58.561Z,100095.72
2023-06-17T03:34:26.151Z,100096.50
2023-06-17T03:36:53.171Z,100092.44
2023-06-17T03:39:20.116Z,100094.25
2023-06-17T03:41:47.041Z,100098.69
2023-06-17T03:44:13.994Z,100095.88
2023-06-17T03:46:41.057Z,100103.12
2023-06-17T03:49:07.978Z,100091.66
2023-06-17T03:51:35.005Z,100090.66
2023-06-17T03:54:03.797Z,100093.16
2023-06-17T03:56:31.471Z,100106.69
2023-06-17T03:58:58.473Z,100095.38
2023-06-17T04:01:25.393Z,100098.19
2023-06-17T04:03:52.608Z,100089.06
2023-06-17T04:06:19.833Z,100079.22
2023-06-17T04:08:48.400Z,100087.41
2023-06-17T04:11:16.550Z,100094.94
2023-06-17T04:13:43.522Z,100089.78
2023-06-17T04:16:10.450Z,100093.06
2023-06-17T04:18:37.418Z,100091.44
2023-06-17T04:21:04.281Z,100098.41
2023-06-17T04:23:31.276Z,100096.59
2023-06-17T04:25:58.227Z,100099.66
2023-06-17T04:28:25.192Z,100090.97
2023-06-17T04:30:52.998Z,100088.69
2023-06-17T04:33:19.944Z,100092.09
2023-06-17T04:35:48.663Z,100092.53
2023-06-17T04:38:15.962Z,100089.97
2023-06-17T04:40:43.001Z,100098.47
2023-06-17T04:43:11.192Z,100096.72
2023-06-17T04:45:38.080Z,100096.53
2023-06-17T04:48:05.429Z,100097.50
2023-06-17T04:50:35.226Z,100093.59
2023-06-17T04:53:05.120Z,100098.47
2023-06-17T04:55:37.024Z,100104.31
2023-06-17T04:58:06.630Z,100103.59
2023-06-17T05:00:33.510Z,100106.09
2023-06-17T05:03:00.482Z,100103.81
2023-06-17T05:05:27.453Z,100104.84
2023-06-17T05:07:54.407Z,100107.78
2023-06-17T05:10:21.730Z,100109.47
2023-06-17T05:12:48.860Z,100119.66
2023-06-17T05:15:15.946Z,100113.69
2023-06-17T05:17:45.013Z,100111.22
2023-06-17T05:20:12.513Z,100111.19
2023-06-17T05:22:39.826Z,100117.63
2023-06-17T05:25:07.762Z,100106.75
2023-06-17T05:27:34.910Z,100119.53
2023-06-17T05:30:01.934Z,100123.91
2023-06-17T05:32:29.238Z,100124.78
2023-06-17T05:34:56.160Z,100127.63
2023-06-17T05:37:23.148Z,100134.16
2023-06-17T05:39:50.155Z,100139.53
2023-06-17T05:42:17.076Z,100137.06
2023-06-17T05:44:44.027Z,100146.16
2023-06-17T05:47:11.089Z,100136.88
2023-06-17T05:49:38.057Z,100151.28
2023-06-17T05:52:05.478Z,100151.28
2023-06-17T05:54:32.438Z,100143.19
2023-06-17T05:56:59.424Z,100151.19
2023-06-17T05:59:28.358Z,100145.44
2023-06-17T06:01:55.533Z,100145.28
2023-06-17T06:04:22.626Z,100142.22
2023-06-17T06:06:49.617Z,100144.44
2023-06-17T06:09:16.821Z,100139.38
2023-06-17T06:11:43.740Z,100140.97
2023-06-17T06:14:10.693Z,100145.91
2023-06-17T06:16:37.693Z,100139.25
2023-06-17T06:19:04.834Z,100147.00
2023-06-17T06:21:31.766Z,100131.53
2023-06-17T06:23:59.108Z,100130.72
2023-06-17T06:26:26.795Z,100130.78
2023-06-17T06:28:54.693Z,100138.69
2023-06-17T06:31:21.618Z,100137.53
2023-06-17T06:33:48.808Z,100132.22
2023-06-17T06:36:15.788Z,100140.94
2023-06-17T06:38:42.885Z,100137.91
2023-06-17T06:41:09.853Z,100128.00
2023-06-17T06:43:36.839Z,100131.19
2023-06-17T06:46:04.065Z,100135.19
2023-06-17T06:48:31.002Z,100127.69
2023-06-17T06:50:58.273Z,100126.53
2023-06-17T06:53:25.584Z,100121.31
2023-06-17T06:55:52.642Z,100120.91
2023-06-17T06:58:19.567Z,100120.44
2023-06-17T07:00:46.548Z,100127.28
2023-06-17T07:03:13.664Z,100123.72
2023-06-17T07:05:40.718Z,100118.87
2023-06-17T07:08:07.829Z,100118.53
2023-06-17T07:10:34.927Z,100120.53
2023-06-17T07:13:01.955Z,100114.28
2023-06-17T07:15:29.071Z,100113.03
2023-06-17T07:17:56.034Z,100109.25
2023-06-17T07:20:23.491Z,100100.41
2023-06-17T07:22:50.679Z,100099.44
2023-06-17T07:25:17.737Z,100099.50
2023-06-17T07:27:44.722Z,100100.50
2023-06-17T07:30:12.249Z,100098.63
2023-06-17T07:32:39.297Z,100108.13
2023-06-17T07:35:07.096Z,100106.88
2023-06-17T07:37:34.240Z,100101.22
2023-06-17T07:40:01.252Z,100100.47
2023-06-17T07:42:28.193Z,100091.72
2023-06-17T07:44:55.151Z,100095.56
2023-06-17T07:47:22.177Z,100101.53
2023-06-17T07:49:49.158Z,100096.91
2023-06-17T07:52:16.302Z,100098.34
2023-06-17T07:54:43.215Z,100104.41
2023-06-17T07:57:10.231Z,100097.59
2023-06-17T07:59:37.166Z,100095.81
2023-06-17T08:02:05.986Z,100097.09
2023-06-17T08:04:34.425Z,100088.97
2023-06-17T08:07:01.759Z,100096.31
2023-06-17T08:09:29.233Z,100099.62
2023-06-17T08:11:56.297Z,100089.81
2023-06-17T08:14:23.261Z,100096.28
2023-06-17T08:16:50.305Z,100101.53
2023-06-17T08:19:17.317Z,100096.12
2023-06-17T08:21:45.852Z,100092.34
2023-06-17T08:24:23.743Z,100105.78
2023-06-17T08:26:51.949Z,100112.63
2023-06-17T08:29:19.797Z,100112.16
2023-06-17T08:31:50.129Z,100099.59
2023-06-17T08:34:17.127Z,100101.25
2023-06-17T08:36:46.808Z,100106.59
2023-06-17T08:39:14.330Z,100098.09
2023-06-17T08:41:43.314Z,100107.28
2023-06-17T08:44:13.134Z,100098.41
2023-06-17T08:46:45.858Z,100112.72
2023-06-17T08:49:14.480Z,100111.06
2023-06-17T08:51:42.062Z,100105.53
2023-06-17T08:54:11.788Z,100110.94
2023-06-17T08:56:39.602Z,100106.53
2023-06-17T08:59:06.634Z,100113.94
2023-06-17T09:01:34.238Z,100110.66
2023-06-17T09:04:02.352Z,100115.34
2023-06-17T09:06:30.794Z,100102.25
2023-06-17T09:08:59.350Z,100110.53
2023-06-17T09:11:29.445Z,100111.97
2023-06-17T09:14:01.950Z,100110.84
2023-06-17T09:16:29.484Z,100125.41
2023-06-17T09:19:08.195Z,100115.63
2023-06-17T09:21:36.512Z,100118.28
2023-06-17T09:24:07.772Z,100110.97
2023-06-17T09:26:36.799Z,100112.59
2023-06-17T09:29:08.621Z,100114.09
2023-06-17T09:31:51.902Z,100115.06
2023-06-17T09:34:20.148Z,100112.13
2023-06-17T09:36:48.098Z,100117.94
2023-06-17T09:39:15.068Z,100116.69
2023-06-17T09:41:44.112Z,100126.06
2023-06-17T09:44:12.881Z,100098.09
2023-06-17T09:46:48.029Z,100113.19
2023-06-17T09:49:23.263Z,100116.94
2023-06-17T09:51:53.113Z,100118.66
2023-06-17T09:54:23.573Z,100118.13
2023-06-17T09:56:53.641Z,100110.31
2023-06-17T09:59:23.055Z,100105.13
2023-06-17T10:01:56.142Z,100109.72
2023-06-17T10:04:23.304Z,100099.22
2023-06-17T10:06:55.002Z,100112.41
2023-06-17T10:09:22.603Z,100100.53
2023-06-17T10:11:54.526Z,100106.66
2023-06-17T10:14:33.063Z,100109.59
2023-06-17T10:17:01.877Z,100109.16
2023-06-17T10:19:33.436Z,100102.38
2023-06-17T10:22:02.891Z,100106.88
2023-06-17T10:24:30.262Z,100096.38
2023-06-17T10:29:30.985Z,100101.72
2023-06-17T10:32:17.671Z,100097.44
2023-06-17T10:35:07.387Z,100103.22
2023-06-17T10:37:52.617Z,100103.47
2023-06-17T10:40:25.151Z,100094.63
2023-06-17T10:43:01.846Z,100067.56
2023-06-17T10:45:48.186Z,100094.37
2023-06-17T10:48:18.181Z,100097.78
2023-06-17T10:50:50.970Z,100096.34
2023-06-17T10:53:19.021Z,100108.19
2023-06-17T10:55:47.292Z,100099.28
2023-06-17T10:58:14.159Z,100089.50
2023-06-17T11:00:41.290Z,100094.94
2023-06-17T11:03:10.511Z,100093.34
2023-06-17T11:05:37.861Z,100084.59
2023-06-17T11:08:05.547Z,100090.12
2023-06-17T11:10:33.300Z,100090.66
2023-06-17T11:13:00.265Z,100085.91
2023-06-17T11:15:27.280Z,100088.78
2023-06-17T11:18:01.652Z,100088.53
2023-06-17T11:20:34.802Z,100093.56
2023-06-17T11:23:04.107Z,100088.44
2023-06-17T11:25:40.357Z,100091.09
2023-06-17T11:28:13.056Z,100089.78
2023-06-17T11:30:41.939Z,100087.56
2023-06-17T11:33:09.625Z,100079.31
2023-06-17T11:35:38.393Z,100078.19
2023-06-17T11:38:06.413Z,100072.62
2023-06-17T11:40:33.384Z,100073.28
2023-06-17T11:43:01.528Z,100069.69
2023-06-17T11:45:31.526Z,100076.78
2023-06-17T11:47:58.848Z,100074.56
2023-06-17T11:50:31.457Z,100066.34
2023-06-17T11:52:59.341Z,100065.88
2023-06-17T11:55:36.676Z,100066.66
2023-06-17T11:58:06.039Z,100054.75
2023-06-17T12:00:37.279Z,100061.56
2023-06-17T12:03:15.377Z,100050.63
2023-06-17T12:05:42.549Z,100047.31
2023-06-17T12:08:10.665Z,100042.06
2023-06-17T12:10:40.418Z,100044.28
2023-06-17T12:13:12.975Z,100050.37
2023-06-17T12:15:40.244Z,100040.13
2023-06-17T12:18:12.895Z,100031.03
2023-06-17T12:20:50.089Z,100035.22
2023-06-17T12:23:17.079Z,100028.50
2023-06-17T12:25:44.464Z,100034.53
2023-06-17T12:28:11.381Z,100038.56
2023-06-17T12:30:40.500Z,100024.75
2023-06-17T12:33:07.430Z,100032.56
2023-06-17T12:35:34.381Z,100041.41
2023-06-17T12:38:01.545Z,100029.22
2023-06-17T12:40:29.315Z,100029.91
2023-06-17T12:42:56.255Z,100027.28
2023-06-17T12:45:23.773Z,100041.38
2023-06-17T12:47:50.979Z,100039.97
2023-06-17T12:50:18.184Z,100035.12
2023-06-17T12:52:45.458Z,100038.91
2023-06-17T12:55:12.455Z,100018.72
2023-06-17T12:57:39.496Z,100016.00
2023-06-17T13:00:07.679Z,100018.50
2023-06-17T13:02:37.204Z,100018.34
2023-06-17T13:05:04.602Z,100035.69
2023-06-17T13:07:31.455Z,100021.03
2023-06-17T13:09:58.680Z,100023.56
2023-06-17T13:12:25.742Z,100028.72
2023-06-17T13:14:52.756Z,100025.25
2023-06-17T13:17:19.756Z,100027.72
2023-06-17T13:19:47.935Z,100032.94
2023-06-17T13:22:15.005Z,100032.38
2023-06-17T13:24:41.957Z,100024.03
2023-06-17T13:27:09.190Z,100021.62
2023-06-17T13:29:36.442Z,100025.22
2023-06-17T13:32:03.770Z,100027.19
2023-06-17T13:34:30.681Z,100022.66
2023-06-17T13:36:57.811Z,100021.88
2023-06-17T13:39:24.718Z,100019.63
2023-06-17T13:41:51.726Z,100020.63
2023-06-17T13:44:18.680Z,100028.56
2023-06-17T13:46:46.327Z,100022.59
2023-06-17T13:49:13.435Z,100022.03
2023-06-17T13:51:40.621Z,100021.38
2023-06-17T13:54:07.648Z,100016.25
2023-06-17T13:56:34.707Z,100023.81
2023-06-17T13:59:01.653Z,100019.53
2023-06-17T14:01:28.710Z,100025.34
2023-06-17T14:03:55.879Z,100022.84
2023-06-17T14:06:23.134Z,100021.66
2023-06-17T14:08:50.075Z,100024.88
2023-06-17T14:11:17.462Z,100014.53
2023-06-17T14:13:44.796Z,100029.91
2023-06-17T14:16:13.068Z,100018.78
2023-06-17T14:18:40.242Z,100024.75
2023-06-17T14:21:07.603Z,100026.81
2023-06-17T14:23:34.648Z,100033.44
2023-06-17T14:26:01.617Z,100022.38
2023-06-17T14:28:28.557Z,100028.44
2023-06-17T14:30:55.583Z,100026.87
2023-06-17T14:33:22.593Z,100026.09
2023-06-17T14:35:49.504Z,100020.81
2023-06-17T14:38:16.520Z,100021.69
2023-06-17T14:40:45.120Z,100018.81
2023-06-17T14:43:12.201Z,100022.47
2023-06-17T14:45:39.175Z,100014.56
2023-06-17T14:48:06.377Z,100018.25
2023-06-17T14:50:33.468Z,100004.56
2023-06-17T14:53:00.452Z,100005.28
2023-06-17T14:55:27.468Z,100001.97
2023-06-17T14:57:54.444Z,99997.56
2023-06-17T15:00:21.861Z,100004.25
2023-06-17T15:02:59.605Z,100002.16
2023-06-17T15:05:28.354Z,100004.84
2023-06-17T15:07:55.701Z,100000.53
2023-06-17T15:10:22.998Z,100005.53
2023-06-17T15:12:50.346Z,100004.19
2023-06-17T15:15:18.387Z,99993.97
2023-06-17T15:17:45.679Z,100002.28
2023-06-17T15:20:12.838Z,100001.94
2023-06-17T15:22:40.234Z,100002.72
2023-06-17T15:25:08.536Z,99993.31
2023-06-17T15:27:36.074Z,100000.56
2023-06-17T15:30:03.899Z,100000.00
2023-06-17T15:32:31.075Z,100000.72
2023-06-17T15:35:00.029Z,99990.59
2023-06-17T15:37:30.700Z,100002.25
2023-06-17T15:39:57.880Z,99989.12
2023-06-17T15:42:24.932Z,99995.16
2023-06-17T15:44:52.029Z,99996.31
2023-06-17T15:47:19.043Z,99993.63
2023-06-17T15:49:46.023Z,99985.75
2023-06-17T15:52:12.999Z,99987.34
2023-06-17T15:54:39.981Z,99992.06
2023-06-17T15:57:09.622Z,99986.03
2023-06-17T15:59:37.159Z,99988.56
2023-06-17T16:02:04.606Z,99986.34
2023-06-17T16:04:33.750Z,99984.47
2023-06-17T16:07:02.667Z,99984.03
2023-06-17T16:09:36.694Z,99989.34
2023-06-17T16:12:05.281Z,99991.38
2023-06-17T16:14:37.222Z,100003.50
2023-06-17T16:17:07.036Z,100002.56
2023-06-17T16:19:38.117Z,100017.28
2023-06-17T16:22:07.365Z,100017.56
2023-06-17T16:24:34.633Z,100016.94
2023-06-17T16:27:01.836Z,100020.56
2023-06-17T16:29:28.857Z,100027.09
2023-06-17T16:31:56.968Z,100023.03
2023-06-17T16:34:24.165Z,100026.25
2023-06-17T16:36:51.733Z,100024.47
2023-06-17T16:39:19.050Z,100024.50
2023-06-17T16:41:46.065Z,100026.22
2023-06-17T16:44:13.248Z,100027.94
2023-06-17T16:46:40.435Z,100020.03
2023-06-17T16:49:07.566Z,100028.69
2023-06-17T16:51:34.503Z,100029.81
2023-06-17T16:54:04.533Z,100034.91
2023-06-17T16:56:33.232Z,100037.28
2023-06-17T16:59:00.271Z,100049.38
2023-06-17T17:01:27.376Z,100051.69
2023-06-17T17:03:54.447Z,100054.53
2023-06-17T17:06:21.486Z,100057.81
2023-06-17T17:08:49.873Z,100069.31
2023-06-17T17:11:17.401Z,100067.56
2023-06-17T17:13:49.198Z,100068.75
2023-06-17T17:16:17.263Z,100068.84
2023-06-17T17:18:44.295Z,100065.97
2023-06-17T17:21:12.840Z,100066.94
2023-06-17T17:23:43.489Z,100070.06
2023-06-17T17:26:13.689Z,100068.50
2023-06-17T17:28:41.688Z,100078.94
2023-06-17T17:31:10.024Z,100075.69
2023-06-17T17:33:37.341Z,100081.72
2023-06-17T17:36:04.570Z,100077.91
2023-06-17T17:38:31.644Z,100074.06
2023-06-17T17:40:58.583Z,100079.75
2023-06-17T17:43:25.423Z,100078.94
2023-06-17T17:45:52.359Z,100077.72
2023-06-17T17:48:19.341Z,100082.88
2023-06-17T17:50:46.676Z,100076.84
2023-06-17T17:53:13.803Z,100082.91
2023-06-17T17:55:40.800Z,100091.56
2023-06-17T17:58:07.706Z,100089.50
2023-06-17T18:00:35.062Z,100093.00
2023-06-17T18:03:02.042Z,100087.81
2023-06-17T18:05:29.060Z,100096.97
2023-06-17T18:07:55.953Z,100103.50
2023-06-17T18:10:23.273Z,100099.78
2023-06-17T18:12:50.373Z,100109.22
2023-06-17T18:15:17.294Z,100107.53
2023-06-17T18:17:44.163Z,100113.19
2023-06-17T18:20:11.330Z,100110.88
2023-06-17T18:22:38.840Z,100110.34
2023-06-17T18:25:06.962Z,100105.34
2023-06-17T18:27:36.717Z,100124.00
2023-06-17T18:30:04.952Z,100125.06
2023-06-17T18:32:32.338Z,100116.22
2023-06-17T18:34:59.293Z,100124.50
2023-06-17T18:37:26.328Z,100124.75
2023-06-17T18:39:53.369Z,100124.75
2023-06-17T18:42:20.380Z,100122.37
2023-06-17T18:44:47.279Z,100130.19
2023-06-17T18:47:14.175Z,100127.63
2023-06-17T18:49:42.061Z,100127.28
2023-06-17T18:52:08.960Z,100123.59
2023-06-17T18:54:35.937Z,100125.69
2023-06-17T18:57:02.871Z,100125.69
2023-06-17T18:59:29.783Z,100128.50
2023-06-17T19:01:56.694Z,100144.12
2023-06-17T19:04:23.666Z,100135.72
2023-06-17T19:06:50.705Z,100145.31
2023-06-17T19:09:17.667Z,100155.63
2023-06-17T19:11:44.589Z,100159.34
2023-06-17T19:14:12.124Z,100167.44
2023-06-17T19:16:39.165Z,100176.97
2023-06-17T19:19:06.188Z,100177.62
2023-06-17T19:21:33.281Z,100178.59
2023-06-17T19:24:00.274Z,100184.19
2023-06-17T19:26:27.252Z,100180.97
2023-06-17T19:28:54.309Z,100187.56
2023-06-17T19:31:22.569Z,100195.75
2023-06-17T19:33:49.576Z,100197.47
2023-06-17T19:36:16.799Z,100190.34
2023-06-17T19:38:43.844Z,100201.03
2023-06-17T19:41:10.932Z,100200.00
2023-06-17T19:43:37.841Z,100201.56
2023-06-17T19:46:05.082Z,100204.59
2023-06-17T19:48:32.636Z,100199.97
2023-06-17T19:51:02.708Z,100207.50
2023-06-17T19:53:29.636Z,100206.00
2023-06-17T19:55:56.815Z,100207.25
2023-06-17T19:58:23.765Z,100207.03
2023-06-17T20:00:50.732Z,100220.13
2023-06-17T20:03:17.739Z,100221.75
2023-06-17T20:05:46.430Z,100218.53
2023-06-17T20:08:14.691Z,100225.38
2023-06-17T20:10:42.941Z,100220.37
2023-06-17T20:13:10.245Z,100221.88
2023-06-17T20:15:38.239Z,100218.12
2023-06-17T20:18:05.575Z,100231.50
2023-06-17T20:20:33.436Z,100232.59
2023-06-17T20:23:00.557Z,100228.44
2023-06-17T20:25:28.436Z,100229.41
2023-06-17T20:27:55.498Z,100231.16
2023-06-17T20:30:23.084Z,100230.13
2023-06-17T20:32:50.148Z,100221.94
2023-06-17T20:35:17.190Z,100226.00
2023-06-17T20:37:44.780Z,100223.78
2023-06-17T20:40:12.136Z,100223.69
2023-06-17T20:42:39.300Z,100224.84
2023-06-17T20:45:08.626Z,100219.56
2023-06-17T20:47:35.833Z,100226.78
2023-06-17T20:50:02.857Z,100218.12
2023-06-17T20:52:29.735Z,100225.03
2023-06-17T20:54:56.637Z,100237.03
2023-06-17T20:57:23.563Z,100232.50
2023-06-17T20:59:51.277Z,100236.22
2023-06-17T21:02:19.894Z,100246.69
2023-06-17T21:04:46.857Z,100246.50
2023-06-17T21:07:13.841Z,100232.63
2023-06-17T21:09:41.308Z,100232.47
2023-06-17T21:12:08.495Z,100239.34
2023-06-17T21:14:35.364Z,100246.75
2023-06-17T21:17:02.317Z,100249.44
2023-06-17T21:19:29.214Z,100245.62
2023-06-17T21:21:56.129Z,100245.91
2023-06-17T21:24:23.032Z,100256.84
2023-06-17T21:26:49.959Z,100246.94
2023-06-17T21:29:16.911Z,100248.56
2023-06-17T21:31:43.871Z,100248.03
2023-06-17T21:34:10.786Z,100242.34
2023-06-17T21:36:37.782Z,100244.69
2023-06-17T21:39:04.655Z,100250.28
2023-06-17T21:41:31.560Z,100242.66
2023-06-17T21:43:58.479Z,100253.34
2023-06-17T21:46:30.221Z,100260.53
2023-06-17T21:48:57.488Z,100262.97
2023-06-17T21:51:24.502Z,100265.94
2023-06-17T21:53:52.273Z,100265.81
2023-06-17T21:56:19.181Z,100266.69
2023-06-17T21:58:46.559Z,100271.53
2023-06-17T22:01:13.564Z,100264.75
2023-06-17T22:03:41.576Z,100278.28
2023-06-17T22:06:08.929Z,100263.22
2023-06-17T22:08:42.885Z,100267.44
2023-06-17T22:11:12.274Z,100260.09
2023-06-17T22:13:39.690Z,100263.84
2023-06-17T22:16:06.579Z,100254.09
2023-06-17T22:18:33.536Z,100258.91
2023-06-17T22:21:00.448Z,100262.91
2023-06-17T22:23:27.338Z,100266.69
2023-06-17T22:25:56.881Z,100266.22
2023-06-17T22:28:23.734Z,100262.84
2023-06-17T22:30:51.200Z,100262.25
2023-06-17T22:33:18.213Z,100264.16
2023-06-17T22:35:45.184Z,100255.03
2023-06-17T22:38:14.051Z,100261.88
2023-06-17T22:40:40.966Z,100263.22
2023-06-17T22:43:08.066Z,100264.47
2023-06-17T22:45:35.154Z,100251.09
2023-06-17T22:48:04.084Z,100252.12
2023-06-17T22:50:31.743Z,100256.66
2023-06-17T22:52:58.583Z,100256.06
2023-06-17T22:55:25.915Z,100263.81
2023-06-17T22:57:52.792Z,100258.56
2023-06-17T23:00:20.155Z,100255.53
2023-06-17T23:02:47.370Z,100254.34
2023-06-17T23:05:14.574Z,100250.53
2023-06-17T23:07:41.441Z,100251.28
2023-06-17T23:10:08.494Z,100254.97
2023-06-17T23:12:35.452Z,100259.03
2023-06-17T23:15:03.433Z,100258.72
2023-06-17T23:17:30.307Z,100255.50
2023-06-17T23:19:59.977Z,100256.88
2023-06-17T23:22:28.090Z,100256.63
2023-06-17T23:24:55.134Z,100256.31
2023-06-17T23:27:28.062Z,100252.16
2023-06-17T23:29:56.197Z,100255.06
2023-06-17T23:32:23.785Z,100252.94
2023-06-17T23:34:53.951Z,100261.41
2023-06-17T23:37:21.565Z,100255.16
2023-06-17T23:39:48.816Z,100252.03
2023-06-17T23:42:15.795Z,100252.09
2023-06-17T23:44:43.572Z,100258.13
2023-06-17T23:47:16.395Z,100256.31
2023-06-17T23:49:43.339Z,100252.94
2023-06-17T23:52:11.356Z,100263.91
2023-06-17T23:54:38.995Z,100259.78
2023-06-17T23:57:06.513Z,100264.13
2023-06-17T23:59:34.020Z,100264.25
